ADDS METAR Data INFO
IDs: Format: Raw Decoded Include TAF

Data at: 0718 UTC 19 Oct 2017

KSJN 190654Z AUTO 20005KT 10SM CLR 15/M03 A3014 RMK AO2 SLP122 T01501033 402670056 TSNO
KSJN 190554Z AUTO 19010KT 8SM CLR 16/M03 A3013 RMK AO2 SLP121 T01561033 10239 20144 58002 TSNO
KSJN 190454Z AUTO 19007KT 10SM CLR 16/M03 A3014 RMK AO2 SLP131 T01561033 TSNO
KSJN 190354Z AUTO 18006KT 10SM CLR 16/M04 A3014 RMK AO2 SLP138 T01561044 TSNO
KSJN 190254Z AUTO 21004KT 10SM CLR 14/M04 A3014 RMK AO2 SLP148 T01441044 53004 TSNO
KSJN 190154Z AUTO 00000KT 10SM BKN120 17/M04 A3014 RMK AO2 SLP153 T01721039 TSNO
KSJN 190054Z AUTO 35007KT 10SM CLR 20/M05 A3013 RMK AO2 SLP143 T02001050 TSNO
KSJN 182354Z AUTO 33009KT 10SM CLR 24/M04 A3013 RMK AO2 SLP132 T02391044 10267 20228 56006 TSNO
KSJN 182254Z AUTO 29008KT 10SM CLR 26/M03 A3013 RMK AO2 SLP129 T02611033 TSNO
KSJN 182154Z AUTO 30007KT 10SM CLR 27/M03 A3014 RMK AO2 SLP123 T02671028 TSNO
KSJN 182054Z AUTO VRB04KT 10SM CLR 26/M04 A3015 RMK AO2 SLP129 T02561039 58024 TSNO
KSJN 181954Z AUTO 34005KT 10SM CLR 25/00 A3018 RMK AO2 SLP138 T02500000 TSNO
KSJN 181854Z AUTO 00000KT 10SM CLR 24/01 A3021 RMK AO2 SLP149 T02390011 TSNO
KSJN 181754Z AUTO VRB04KT 10SM CLR 23/02 A3023 RMK AO2 SLP158 T02280017 10233 20056 58003 TSNO
KSJN 181654Z AUTO 01004KT 10SM CLR 20/02 A3024 RMK AO2 SLP167 T02000017 TSNO
KSJN 181554Z AUTO 08004KT 10SM CLR 16/02 A3024 RMK AO2 SLP176 T01610017 TSNO
KSJN 181454Z AUTO 00000KT 10SM CLR 12/01 A3024 RMK AO2 SLP187 T01220006 51007 TSNO
KSJN 181354Z AUTO 18003KT 9SM CLR 07/M01 A3023 RMK AO2 SLP186 T00721011 TSNO
KSJN 181254Z AUTO 26003KT 10SM CLR 07/M01 A3023 RMK AO2 SLP177 T00671011 TSNO
KSJN 181154Z AUTO 00000KT 10SM CLR 08/M01 A3022 RMK AO2 SLP163 T00781011 10144 20067 55001 TSNO
KSJN 181054Z AUTO 00000KT 9SM CLR 08/M01 A3020 RMK AO2 SLP154 T00831006 TSNO
KSJN 180954Z AUTO 20003KT 10SM CLR 12/00 A3021 RMK AO2 SLP147 T01170000 TSNO
KSJN 180854Z AUTO 17003KT 10SM CLR 12/00 A3022 RMK AO2 SLP154 T01220000 55003 TSNO
KSJN 180754Z AUTO 16003KT 10SM CLR 13/M01 A3022 RMK AO2 SLP151 T01281006 TSNO
KSJN 180654Z AUTO 18005KT 8SM CLR 14/00 A3022 RMK AO2 SLP155 T01390000 402670028 TSNO
KSJN 180554Z AUTO 20003KT 10SM CLR 14/M01 A3023 RMK AO2 SLP160 T01441011 10250 20122 50005 TSNO
KSJN 180454Z AUTO 00000KT 10SM CLR 14/M03 A3024 RMK AO2 SLP170 T01441033 TSNO
KSJN 180354Z AUTO 21004KT 10SM CLR 14/M06 A3023 RMK AO2 SLP177 T01391056 TSNO
KSJN 180254Z AUTO 23004KT 10SM CLR 13/M05 A3022 RMK AO2 SLP182 T01331050 51007 TSNO
KSJN 180154Z AUTO 27003KT 10SM CLR 16/M04 A3021 RMK AO2 SLP190 T01561044 TSNO
KSJN 180054Z AUTO 32003KT 10SM CLR 21/M05 A3020 RMK AO2 SLP174 T02061050 TSNO
KSJN 172354Z AUTO 36003KT 10SM CLR 24/M04 A3019 RMK AO2 SLP159 T02441044 10267 20217 56011 TSNO
KSJN 172254Z AUTO 35006KT 10SM CLR 26/M04 A3020 RMK AO2 SLP163 T02611044 TSNO
KSJN 172154Z AUTO 33008KT 10SM CLR 27/M04 A3021 RMK AO2 SLP159 T02671044 TSNO
KSJN 172054Z AUTO 10SM CLR 26/M04 A3023 RMK AO2 SLP165 T02561039 56032 TSNO
KSJN 171954Z AUTO 06005KT 10SM CLR 26/M03 A3026 RMK AO2 SLP171 T02611028 TSNO